createdAt,value
2024-04-30T00:02:10.488Z,1.42
2024-04-30T00:04:38.286Z,1.15
2024-04-30T00:07:11.482Z,0.93
2024-04-30T00:09:40.535Z,1.45
2024-04-30T00:12:10.894Z,1.35
2024-04-30T00:14:39.559Z,1.70
2024-04-30T00:17:09.688Z,1.33
2024-04-30T00:19:37.005Z,1.48
2024-04-30T00:22:07.297Z,1.10
2024-04-30T00:24:40.266Z,1.75
2024-04-30T00:27:10.256Z,1.30
2024-04-30T00:29:37.524Z,1.65
2024-04-30T00:32:08.335Z,1.02
2024-04-30T00:34:35.667Z,1.20
2024-04-30T00:37:11.645Z,1.13
2024-04-30T00:39:44.120Z,1.17
2024-04-30T00:42:14.123Z,1.17
2024-04-30T00:44:44.921Z,1.38
2024-04-30T00:47:17.904Z,1.55
2024-04-30T00:49:54.825Z,1.15
2024-04-30T00:52:37.812Z,1.13
2024-04-30T00:55:10.543Z,1.00
2024-04-30T00:57:47.245Z,1.05
2024-04-30T01:00:18.652Z,0.70
2024-04-30T01:02:56.088Z,1.42
2024-04-30T01:05:32.026Z,1.10
2024-04-30T01:07:59.350Z,1.35
2024-04-30T01:10:41.906Z,1.00
2024-04-30T01:13:11.710Z,1.02
2024-04-30T01:15:42.527Z,1.40
2024-04-30T01:18:09.809Z,1.08
2024-04-30T01:20:49.324Z,1.10
2024-04-30T01:23:19.165Z,1.20
2024-04-30T01:25:52.644Z,1.08
2024-04-30T01:28:33.014Z,1.00
2024-04-30T01:31:00.497Z,1.33
2024-04-30T01:34:05.659Z,1.27
2024-04-30T01:36:40.442Z,0.93
2024-04-30T01:39:12.941Z,1.10
2024-04-30T01:41:47.247Z,1.17
2024-04-30T01:44:17.688Z,1.30
2024-04-30T01:46:44.963Z,1.42
2024-04-30T01:49:14.877Z,1.40
2024-04-30T01:51:42.105Z,1.00
2024-04-30T01:54:14.921Z,1.33
2024-04-30T01:56:42.233Z,1.83
2024-04-30T01:59:16.779Z,1.80
2024-04-30T02:01:47.360Z,1.65
2024-04-30T02:04:17.474Z,1.55
2024-04-30T02:06:44.816Z,1.23
2024-04-30T02:09:17.329Z,1.00
2024-04-30T02:11:44.721Z,1.40
2024-04-30T02:14:14.767Z,2.03
2024-04-30T02:16:41.995Z,1.35
2024-04-30T02:19:18.237Z,1.48
2024-04-30T02:21:50.305Z,1.50
2024-04-30T02:24:20.612Z,1.55
2024-04-30T02:26:51.207Z,2.22
2024-04-30T02:29:18.755Z,1.30
2024-04-30T02:32:04.889Z,1.65
2024-04-30T02:34:34.984Z,1.52
2024-04-30T02:37:05.142Z,1.40
2024-04-30T02:39:39.472Z,1.30
2024-04-30T02:42:09.331Z,1.33
2024-04-30T02:44:36.636Z,1.52
2024-04-30T02:47:07.407Z,1.92
2024-04-30T02:49:34.802Z,1.10
2024-04-30T02:52:04.749Z,1.25
2024-04-30T02:54:34.662Z,1.30
2024-04-30T02:57:04.508Z,1.00
2024-04-30T02:59:33.567Z,1.10
2024-04-30T03:02:03.472Z,1.23
2024-04-30T03:04:30.791Z,1.85
2024-04-30T03:07:00.709Z,1.27
2024-04-30T03:09:28.040Z,1.52
2024-04-30T03:12:02.020Z,1.10
2024-04-30T03:14:29.524Z,1.40
2024-04-30T03:16:59.759Z,1.25
2024-04-30T03:19:27.124Z,1.17
2024-04-30T03:21:57.020Z,1.30
2024-04-30T03:24:24.395Z,1.25
2024-04-30T03:26:54.274Z,1.55
2024-04-30T03:29:24.302Z,1.85
2024-04-30T03:31:54.143Z,1.40
2024-04-30T03:34:22.070Z,1.50
2024-04-30T03:36:52.023Z,1.83
2024-04-30T03:39:21.904Z,1.20
2024-04-30T03:41:51.748Z,1.38
2024-04-30T03:44:21.692Z,1.30
2024-04-30T03:46:54.247Z,1.60
2024-04-30T03:49:21.824Z,1.75
2024-04-30T03:51:51.667Z,1.40
2024-04-30T03:54:18.888Z,1.55
2024-04-30T03:56:49.305Z,1.50
2024-04-30T03:59:17.485Z,1.35
2024-04-30T04:01:47.426Z,1.70
2024-04-30T04:04:17.392Z,11.35
2024-04-30T04:06:47.507Z,7.95
2024-04-30T04:09:14.811Z,6.00
2024-04-30T04:12:00.493Z,8.25
2024-04-30T04:14:48.224Z,3.35
2024-04-30T04:17:19.120Z,1.92
2024-04-30T04:19:51.868Z,2.63
2024-04-30T04:22:21.752Z,5.13
2024-04-30T04:24:51.626Z,9.55
2024-04-30T04:27:18.958Z,6.72
2024-04-30T04:29:48.780Z,5.13
2024-04-30T04:32:16.070Z,6.35
2024-04-30T04:34:45.980Z,4.75
2024-04-30T04:37:15.970Z,6.35
2024-04-30T04:39:46.011Z,6.78
2024-04-30T04:42:15.881Z,4.60
2024-04-30T04:44:43.173Z,4.10
2024-04-30T04:47:13.027Z,4.32
2024-04-30T04:49:40.356Z,3.45
2024-04-30T04:52:10.311Z,2.75
2024-04-30T04:54:40.191Z,2.05
2024-04-30T04:57:10.048Z,2.17
2024-04-30T04:59:37.340Z,1.77
2024-04-30T05:02:07.583Z,1.70
2024-04-30T05:04:35.185Z,1.95
2024-04-30T05:07:05.117Z,1.40
2024-04-30T05:09:32.457Z,2.20
2024-04-30T05:12:05.104Z,2.20
2024-04-30T05:14:32.478Z,3.38
2024-04-30T05:17:02.428Z,2.20
2024-04-30T05:19:29.780Z,1.77
2024-04-30T05:21:59.712Z,2.97
2024-04-30T05:24:26.958Z,3.83
2024-04-30T05:26:56.869Z,3.25
2024-04-30T05:29:26.749Z,3.17
2024-04-30T05:31:56.710Z,2.97
2024-04-30T05:34:24.058Z,2.65
2024-04-30T05:36:53.913Z,2.60
2024-04-30T05:39:21.805Z,1.80
2024-04-30T05:41:51.702Z,1.60
2024-04-30T05:44:19.064Z,1.90
2024-04-30T05:46:51.659Z,1.60
2024-04-30T05:49:19.234Z,1.08
2024-04-30T05:51:49.154Z,1.08
2024-04-30T05:54:16.457Z,1.10
2024-04-30T05:56:46.297Z,1.05
2024-04-30T05:59:14.158Z,1.23
2024-04-30T06:01:44.023Z,1.00
2024-04-30T06:04:14.105Z,1.08
2024-04-30T06:06:44.042Z,0.90
2024-04-30T06:09:11.313Z,0.80
2024-04-30T06:11:41.273Z,0.98
2024-04-30T06:14:08.574Z,0.90
2024-04-30T06:16:38.815Z,1.13
2024-04-30T06:19:06.234Z,1.00
2024-04-30T06:21:39.316Z,2.83
2024-04-30T06:24:07.542Z,1.10
2024-04-30T06:26:37.555Z,1.30
2024-04-30T06:29:04.928Z,0.90
2024-04-30T06:31:34.993Z,1.33
2024-04-30T06:34:02.671Z,1.10
2024-04-30T06:36:32.771Z,1.00
2024-04-30T06:39:02.787Z,0.90
2024-04-30T06:41:32.669Z,1.33
2024-04-30T06:44:00.542Z,0.90
2024-04-30T06:46:30.719Z,0.80
2024-04-30T06:49:02.615Z,1.50
2024-04-30T06:51:30.019Z,1.33
2024-04-30T06:53:59.923Z,1.05
2024-04-30T06:56:30.013Z,0.93
2024-04-30T06:58:59.877Z,0.90
2024-04-30T07:01:27.156Z,1.65
2024-04-30T07:03:57.126Z,1.17
2024-04-30T07:06:24.507Z,1.05
2024-04-30T07:08:54.298Z,1.13
2024-04-30T07:11:21.590Z,0.80
2024-04-30T07:13:54.649Z,1.00
2024-04-30T07:16:21.983Z,1.02
2024-04-30T07:18:52.841Z,0.93
2024-04-30T07:21:20.191Z,0.90
2024-04-30T07:23:50.001Z,1.20
2024-04-30T07:26:18.947Z,1.52
2024-04-30T07:28:49.180Z,3.10
2024-04-30T07:31:19.125Z,1.60
2024-04-30T07:33:49.321Z,2.53
2024-04-30T07:36:16.884Z,2.22
2024-04-30T07:38:46.733Z,2.13
2024-04-30T07:41:13.988Z,0.93
2024-04-30T07:43:43.934Z,1.05
2024-04-30T07:46:11.202Z,2.13
2024-04-30T07:48:44.785Z,1.10
2024-04-30T07:51:12.005Z,1.30
2024-04-30T07:53:42.019Z,1.48
2024-04-30T07:56:09.292Z,0.93
2024-04-30T07:58:39.538Z,0.75
2024-04-30T08:01:07.071Z,1.20
2024-04-30T08:03:37.050Z,1.40
2024-04-30T08:06:14.536Z,1.30
2024-04-30T08:08:49.990Z,1.40
2024-04-30T08:11:17.299Z,1.77
2024-04-30T08:13:47.282Z,2.58
2024-04-30T08:16:14.836Z,2.88
2024-04-30T08:18:44.716Z,1.30
2024-04-30T08:21:17.262Z,3.45
2024-04-30T08:23:44.533Z,1.67
2024-04-30T08:26:14.400Z,1.10
2024-04-30T08:28:41.855Z,0.80
2024-04-30T08:31:12.406Z,1.13
2024-04-30T08:33:39.750Z,1.20
2024-04-30T08:36:10.018Z,1.08
2024-04-30T08:38:39.953Z,1.10
2024-04-30T08:41:10.443Z,1.95
2024-04-30T08:43:38.299Z,1.30
2024-04-30T08:46:09.353Z,0.98
2024-04-30T08:48:39.417Z,0.90
2024-04-30T08:51:10.312Z,1.13
2024-04-30T08:53:40.400Z,1.17
2024-04-30T08:56:13.605Z,1.33
2024-04-30T08:58:41.826Z,2.10
2024-04-30T09:01:12.305Z,1.70
2024-04-30T09:03:41.269Z,1.10
2024-04-30T09:06:13.035Z,0.90
2024-04-30T09:08:45.898Z,0.90
2024-04-30T09:11:17.562Z,1.23
2024-04-30T09:13:45.195Z,1.10
2024-04-30T09:16:15.203Z,1.70
2024-04-30T09:18:51.626Z,1.40
2024-04-30T09:21:27.477Z,1.02
2024-04-30T09:24:06.019Z,1.00
2024-04-30T09:26:35.964Z,1.10
2024-04-30T09:29:03.206Z,1.00
2024-04-30T09:31:40.003Z,1.02
2024-04-30T09:34:11.929Z,1.38
2024-04-30T09:36:42.502Z,1.15
2024-04-30T09:39:12.582Z,1.25
2024-04-30T09:41:42.925Z,1.00
2024-04-30T09:44:10.370Z,0.90
2024-04-30T09:46:40.884Z,0.98
2024-04-30T09:49:09.292Z,1.00
2024-04-30T09:51:42.666Z,1.52
2024-04-30T09:54:16.552Z,1.10
2024-04-30T09:56:45.757Z,1.30
2024-04-30T09:59:15.625Z,1.23
2024-04-30T10:01:43.765Z,1.70
2024-04-30T10:04:13.858Z,0.90
2024-04-30T10:06:42.796Z,0.90
2024-04-30T10:09:15.593Z,1.10
2024-04-30T10:11:46.282Z,1.20
2024-04-30T10:14:16.161Z,1.60
2024-04-30T10:16:56.213Z,1.30
2024-04-30T10:19:26.185Z,1.00
2024-04-30T10:21:53.525Z,1.30
2024-04-30T10:24:26.781Z,1.50
2024-04-30T10:26:56.641Z,0.90
2024-04-30T10:29:23.921Z,1.20
2024-04-30T10:31:56.181Z,1.10
2024-04-30T10:34:27.123Z,1.30
2024-04-30T10:36:54.754Z,1.33
2024-04-30T10:39:30.432Z,0.80
2024-04-30T10:42:00.363Z,1.10
2024-04-30T10:44:27.685Z,1.40
2024-04-30T10:47:00.191Z,1.73
2024-04-30T10:49:30.130Z,1.50
2024-04-30T10:52:00.036Z,1.48
2024-04-30T10:54:30.295Z,1.02
2024-04-30T10:57:00.301Z,1.13
2024-04-30T10:59:28.087Z,1.40
2024-04-30T11:02:00.769Z,1.20
2024-04-30T11:04:31.484Z,1.13
2024-04-30T11:07:01.693Z,1.13
2024-04-30T11:09:40.016Z,1.15
2024-04-30T11:12:10.121Z,0.90
2024-04-30T11:14:43.705Z,1.35
2024-04-30T11:17:16.438Z,2.30
2024-04-30T11:19:46.718Z,1.08
2024-04-30T11:22:14.294Z,1.30
2024-04-30T11:24:46.953Z,1.00
2024-04-30T11:27:14.232Z,1.00
2024-04-30T11:29:44.276Z,1.30
2024-04-30T11:32:11.844Z,1.48
2024-04-30T11:34:41.829Z,1.60
2024-04-30T11:37:09.240Z,1.10
2024-04-30T11:39:39.155Z,1.20
2024-04-30T11:42:18.245Z,1.23
2024-04-30T11:44:54.260Z,1.30
2024-04-30T11:47:21.714Z,1.48
2024-04-30T11:49:51.747Z,1.25
2024-04-30T11:52:20.319Z,1.60
2024-04-30T11:54:50.351Z,1.58
2024-04-30T11:57:20.227Z,1.52
2024-04-30T11:59:54.302Z,1.20
2024-04-30T12:02:21.755Z,1.40
2024-04-30T12:04:51.841Z,1.90
2024-04-30T12:07:19.475Z,1.45
2024-04-30T12:09:49.447Z,1.60
2024-04-30T12:12:19.547Z,1.60
2024-04-30T12:14:49.396Z,1.58
2024-04-30T12:17:17.334Z,1.40
2024-04-30T12:19:47.318Z,1.45
2024-04-30T12:22:14.658Z,1.38
2024-04-30T12:24:44.541Z,1.80
2024-04-30T12:27:11.860Z,1.25
2024-04-30T12:29:44.586Z,2.03
2024-04-30T12:32:12.108Z,1.67
2024-04-30T12:34:43.236Z,1.70
2024-04-30T12:37:11.270Z,1.80
2024-04-30T12:39:41.363Z,1.67
2024-04-30T12:42:08.624Z,1.30
2024-04-30T12:44:38.629Z,1.58
2024-04-30T12:47:08.551Z,1.70
2024-04-30T12:49:39.936Z,1.63
2024-04-30T12:52:07.734Z,1.70
2024-04-30T12:54:37.903Z,3.47
2024-04-30T12:57:05.703Z,2.08
2024-04-30T12:59:35.857Z,1.40
2024-04-30T13:02:03.241Z,2.42
2024-04-30T13:04:35.848Z,1.90
2024-04-30T13:07:03.881Z,2.17
2024-04-30T13:09:36.024Z,1.50
2024-04-30T13:12:04.754Z,1.90
2024-04-30T13:14:34.574Z,2.08
2024-04-30T13:17:01.876Z,1.50
2024-04-30T13:19:31.789Z,2.95
2024-04-30T13:22:01.997Z,1.75
2024-04-30T13:24:31.873Z,1.88
2024-04-30T13:26:59.066Z,1.90
2024-04-30T13:29:31.894Z,2.03
2024-04-30T13:31:59.201Z,2.00
2024-04-30T13:34:31.591Z,1.63
2024-04-30T13:37:01.496Z,1.73
2024-04-30T13:39:31.374Z,1.92
2024-04-30T13:41:58.720Z,1.40
2024-04-30T13:44:29.120Z,1.60
2024-04-30T13:46:57.983Z,1.90
2024-04-30T13:49:28.000Z,2.85
2024-04-30T13:51:55.248Z,1.80
2024-04-30T13:54:27.885Z,1.80
2024-04-30T13:56:57.837Z,1.70
2024-04-30T13:59:25.294Z,2.15
2024-04-30T14:01:58.207Z,1.77
2024-04-30T14:04:25.813Z,1.50
2024-04-30T14:06:56.238Z,1.33
2024-04-30T14:09:29.572Z,1.60
2024-04-30T14:12:00.147Z,1.80
2024-04-30T14:14:31.052Z,1.63
2024-04-30T14:16:58.333Z,1.98
2024-04-30T14:19:28.831Z,1.75
2024-04-30T14:21:57.361Z,1.70
2024-04-30T14:24:30.022Z,1.73
2024-04-30T14:26:57.286Z,1.42
2024-04-30T14:29:27.186Z,1.70
2024-04-30T14:31:54.716Z,2.28
2024-04-30T14:34:26.519Z,1.70
2024-04-30T14:36:54.570Z,1.77
2024-04-30T14:39:24.345Z,2.10
2024-04-30T14:41:56.603Z,2.67
2024-04-30T14:44:28.570Z,1.67
2024-04-30T14:46:58.488Z,1.67
2024-04-30T14:49:25.784Z,1.77
2024-04-30T14:51:55.694Z,1.98
2024-04-30T14:54:23.186Z,3.22
2024-04-30T14:56:55.248Z,1.63
2024-04-30T14:59:25.575Z,1.50
2024-04-30T15:01:55.522Z,1.65
2024-04-30T15:04:22.978Z,2.08
2024-04-30T15:06:54.043Z,1.90
2024-04-30T15:09:22.310Z,1.80
2024-04-30T15:11:52.306Z,1.95
2024-04-30T15:14:19.601Z,1.67
2024-04-30T15:16:52.260Z,1.40
2024-04-30T15:19:22.497Z,1.80
2024-04-30T15:21:50.634Z,6.90
2024-04-30T15:24:20.517Z,3.47
2024-04-30T15:26:47.832Z,2.10
2024-04-30T15:29:18.251Z,1.52
2024-04-30T15:31:45.622Z,1.40
2024-04-30T15:34:18.201Z,1.65
2024-04-30T15:36:45.520Z,1.45
2024-04-30T15:39:18.300Z,1.73
2024-04-30T15:41:45.648Z,1.55
2024-04-30T15:44:15.802Z,1.70
2024-04-30T15:46:43.246Z,1.85
2024-04-30T15:49:14.575Z,1.80
2024-04-30T15:51:44.532Z,2.10
2024-04-30T15:54:16.709Z,1.80
2024-04-30T15:56:50.697Z,1.70
2024-04-30T15:59:28.189Z,3.33
2024-04-30T16:01:55.672Z,1.67
2024-04-30T16:04:25.807Z,1.98
2024-04-30T16:06:55.804Z,2.03
2024-04-30T16:09:25.801Z,2.38
2024-04-30T16:11:53.068Z,1.77
2024-04-30T16:14:24.894Z,1.70
2024-04-30T16:16:52.186Z,1.70
2024-04-30T16:19:23.539Z,1.90
2024-04-30T16:21:54.865Z,1.80
2024-04-30T16:24:28.262Z,2.08
2024-04-30T16:26:56.162Z,4.55
2024-04-30T16:29:26.027Z,2.72
2024-04-30T16:31:53.381Z,2.35
2024-04-30T16:34:23.308Z,2.67
2024-04-30T16:36:57.557Z,2.25
2024-04-30T16:39:30.421Z,1.83
2024-04-30T16:42:00.479Z,1.98
2024-04-30T16:44:36.956Z,1.70
2024-04-30T16:47:14.391Z,2.67
2024-04-30T16:49:41.700Z,1.85
2024-04-30T16:52:11.494Z,2.30
2024-04-30T16:54:41.435Z,1.95
2024-04-30T16:57:11.530Z,1.85
2024-04-30T16:59:38.800Z,2.00
2024-04-30T17:02:12.059Z,1.77
2024-04-30T17:04:39.785Z,2.10
2024-04-30T17:07:09.778Z,2.70
2024-04-30T17:09:37.714Z,1.58
2024-04-30T17:12:10.521Z,2.03
2024-04-30T17:14:39.289Z,2.42
2024-04-30T17:17:10.082Z,1.80
2024-04-30T17:19:37.302Z,1.80
2024-04-30T17:22:07.467Z,1.92
2024-04-30T17:24:34.864Z,1.75
2024-04-30T17:27:04.837Z,1.75
2024-04-30T17:29:34.725Z,1.70
2024-04-30T17:32:04.783Z,1.80
2024-04-30T17:34:32.175Z,1.80
2024-04-30T17:37:02.437Z,2.20
2024-04-30T17:39:29.957Z,2.00
2024-04-30T17:41:59.932Z,1.63
2024-04-30T17:44:27.151Z,2.10
2024-04-30T17:46:59.779Z,1.92
2024-04-30T17:49:27.026Z,2.03
2024-04-30T17:51:57.388Z,1.92
2024-04-30T17:54:25.028Z,2.00
2024-04-30T17:56:55.000Z,1.95
2024-04-30T17:59:22.269Z,1.75
2024-04-30T18:01:52.220Z,1.75
2024-04-30T18:04:22.435Z,1.83
2024-04-30T18:06:52.710Z,1.67
2024-04-30T18:09:20.170Z,2.08
2024-04-30T18:11:52.319Z,1.83
2024-04-30T18:14:19.675Z,1.52
2024-04-30T18:16:49.749Z,1.70
2024-04-30T18:19:17.415Z,1.77
2024-04-30T18:21:50.291Z,1.70
2024-04-30T18:24:17.613Z,2.22
2024-04-30T18:26:47.455Z,1.90
2024-04-30T18:29:16.851Z,1.50
2024-04-30T18:31:53.826Z,1.58
2024-04-30T18:34:21.698Z,1.85
2024-04-30T18:36:54.610Z,2.25
2024-04-30T18:39:21.971Z,2.22
2024-04-30T18:41:51.926Z,1.70
2024-04-30T18:44:19.230Z,1.63
2024-04-30T18:46:49.671Z,2.00
2024-04-30T18:49:17.121Z,2.58
2024-04-30T18:51:49.209Z,2.03
2024-04-30T18:54:20.513Z,1.80
2024-04-30T18:56:53.055Z,2.33
2024-04-30T18:59:20.791Z,2.63
2024-04-30T19:01:51.032Z,2.08
2024-04-30T19:04:18.471Z,1.95
2024-04-30T19:06:48.361Z,2.08
2024-04-30T19:09:15.768Z,2.17
2024-04-30T19:11:48.433Z,2.30
2024-04-30T19:14:15.695Z,3.40
2024-04-30T19:16:46.452Z,1.83
2024-04-30T19:19:18.141Z,1.73
2024-04-30T19:21:51.799Z,2.13
2024-04-30T19:24:22.136Z,1.60
2024-04-30T19:26:54.957Z,1.92
2024-04-30T19:29:22.187Z,1.77
2024-04-30T19:31:52.097Z,2.05
2024-04-30T19:34:19.665Z,2.15
2024-04-30T19:36:49.608Z,1.80
2024-04-30T19:39:16.961Z,1.73
2024-04-30T19:41:47.480Z,2.30
2024-04-30T19:44:17.537Z,1.73
2024-04-30T19:46:47.487Z,2.00
2024-04-30T19:49:14.902Z,1.83
2024-04-30T19:51:45.176Z,1.95
2024-04-30T19:54:12.549Z,2.20
2024-04-30T19:56:43.096Z,1.92
2024-04-30T19:59:10.823Z,1.52
2024-04-30T20:01:43.919Z,1.83
2024-04-30T20:04:11.311Z,2.00
2024-04-30T20:06:44.809Z,2.45
2024-04-30T20:09:12.118Z,1.90
2024-04-30T20:11:42.035Z,1.50
2024-04-30T20:14:11.671Z,2.22
2024-04-30T20:16:47.190Z,2.35
2024-04-30T20:19:17.140Z,1.75
2024-04-30T20:21:44.597Z,2.58
2024-04-30T20:24:14.887Z,2.03
2024-04-30T20:26:42.137Z,2.00
2024-04-30T20:29:13.393Z,1.90
2024-04-30T20:31:44.639Z,2.00
2024-04-30T20:34:14.781Z,2.70
2024-04-30T20:36:42.208Z,2.55
2024-04-30T20:39:12.120Z,1.85
2024-04-30T20:41:39.357Z,2.15
2024-04-30T20:44:10.023Z,2.90
2024-04-30T20:46:40.388Z,2.10
2024-04-30T20:49:14.648Z,2.10
2024-04-30T20:51:43.128Z,1.67
2024-04-30T20:54:13.375Z,1.70
2024-04-30T20:56:41.145Z,2.00
2024-04-30T20:59:12.639Z,2.03
2024-04-30T21:01:40.289Z,2.50
2024-04-30T21:04:10.425Z,2.25
2024-04-30T21:06:40.980Z,2.78
2024-04-30T21:09:11.310Z,2.20
2024-04-30T21:11:38.714Z,2.25
2024-04-30T21:14:10.537Z,1.70
2024-04-30T21:16:38.841Z,2.50
2024-04-30T21:19:09.290Z,2.33
2024-04-30T21:21:42.977Z,2.58
2024-04-30T21:24:13.896Z,2.38
2024-04-30T21:26:41.608Z,2.05
2024-04-30T21:29:11.526Z,2.42
2024-04-30T21:31:38.808Z,1.90
2024-04-30T21:34:09.500Z,2.20
2024-04-30T21:36:46.363Z,2.13
2024-04-30T21:39:17.922Z,2.15
2024-04-30T21:41:45.172Z,2.30
2024-04-30T21:44:15.123Z,1.90
2024-04-30T21:46:42.407Z,2.33
2024-04-30T21:49:12.511Z,2.40
2024-04-30T21:51:42.157Z,3.42
2024-04-30T21:54:15.562Z,2.55
2024-04-30T21:56:42.947Z,2.50
2024-04-30T21:59:12.791Z,2.72
2024-04-30T22:01:49.177Z,2.47
2024-04-30T22:04:16.954Z,2.08
2024-04-30T22:06:47.060Z,2.45
2024-04-30T22:09:17.139Z,1.80
2024-04-30T22:11:47.828Z,2.13
2024-04-30T22:14:15.269Z,2.53
2024-04-30T22:16:45.333Z,2.50
2024-04-30T22:19:12.581Z,2.60
2024-04-30T22:21:42.694Z,2.42
2024-04-30T22:24:10.206Z,2.45
2024-04-30T22:26:42.727Z,3.03
2024-04-30T22:29:10.181Z,2.42
2024-04-30T22:31:40.291Z,2.45
2024-04-30T22:34:07.716Z,2.65
2024-04-30T22:36:38.912Z,2.60
2024-04-30T22:39:06.227Z,2.83
2024-04-30T22:41:36.189Z,2.90
2024-04-30T22:44:10.137Z,2.63
2024-04-30T22:46:37.447Z,2.80
2024-04-30T22:49:07.911Z,3.05
2024-04-30T22:51:35.255Z,2.88
2024-04-30T22:54:05.081Z,2.60
2024-04-30T22:56:34.596Z,2.50
2024-04-30T22:59:04.839Z,3.38
2024-04-30T23:01:34.976Z,2.50
2024-04-30T23:04:05.163Z,1.98
2024-04-30T23:06:32.886Z,3.28
2024-04-30T23:09:02.790Z,2.85
2024-04-30T23:11:30.123Z,2.78
2024-04-30T23:14:00.010Z,2.70
2024-04-30T23:16:27.493Z,2.30
2024-04-30T23:19:00.318Z,3.13
2024-04-30T23:21:27.827Z,2.70
2024-04-30T23:23:57.606Z,2.45
2024-04-30T23:26:24.854Z,2.70
2024-04-30T23:28:54.805Z,2.80
2024-04-30T23:31:22.060Z,2.80
2024-04-30T23:33:52.307Z,3.13
2024-04-30T23:36:22.229Z,2.95
2024-04-30T23:38:52.220Z,2.85
2024-04-30T23:41:19.586Z,3.53
2024-04-30T23:43:49.402Z,2.33
2024-04-30T23:46:16.619Z,2.72
2024-04-30T23:48:47.372Z,2.97
2024-04-30T23:51:14.760Z,2.20
2024-04-30T23:53:47.518Z,2.58
2024-04-30T23:56:15.023Z,2.97
2024-04-30T23:58:45.927Z,2.67
